createdAt,value
2023-05-15T00:01:36.004Z,4.82
2023-05-15T00:05:40.787Z,6.68
2023-05-15T00:09:46.188Z,7.85
2023-05-15T00:13:51.231Z,9.77
2023-05-15T00:17:56.551Z,7.95
2023-05-15T00:22:01.342Z,7.32
2023-05-15T00:26:07.608Z,4.57
2023-05-15T00:30:11.509Z,5.75
2023-05-15T00:34:14.561Z,4.38
2023-05-15T00:38:22.778Z,6.00
2023-05-15T00:42:30.335Z,5.15
2023-05-15T00:46:34.291Z,4.43
2023-05-15T00:50:42.714Z,5.57
2023-05-15T00:54:49.566Z,5.82
2023-05-15T00:58:59.809Z,4.55
2023-05-15T01:03:09.664Z,4.20
2023-05-15T01:07:13.058Z,3.80
2023-05-15T01:11:18.623Z,3.85
2023-05-15T01:15:21.670Z,5.78
2023-05-15T01:19:35.988Z,3.70
2023-05-15T01:23:50.120Z,4.20
2023-05-15T01:27:58.429Z,4.03
2023-05-15T01:32:05.526Z,3.83
2023-05-15T01:36:14.781Z,4.47
2023-05-15T01:40:24.759Z,3.38
2023-05-15T01:44:30.720Z,3.70
2023-05-15T01:48:37.426Z,5.30
2023-05-15T01:52:44.387Z,6.55
2023-05-15T01:56:47.482Z,3.67
2023-05-15T02:00:55.167Z,4.07
2023-05-15T02:05:00.620Z,3.10
2023-05-15T02:09:06.750Z,4.00
2023-05-15T02:13:11.340Z,4.20
2023-05-15T02:17:16.350Z,10.90
2023-05-15T02:21:19.521Z,4.43
2023-05-15T02:25:35.893Z,4.75
2023-05-15T02:29:53.077Z,9.82
2023-05-15T02:34:12.044Z,5.57
2023-05-15T02:38:25.718Z,5.95
2023-05-15T02:42:30.691Z,4.63
2023-05-15T02:46:39.218Z,3.95
2023-05-15T02:50:46.438Z,4.20
2023-05-15T02:54:51.124Z,3.95
2023-05-15T02:58:57.006Z,3.50
2023-05-15T03:03:04.615Z,4.43
2023-05-15T03:07:09.030Z,6.90
2023-05-15T03:11:18.085Z,10.70
2023-05-15T03:15:21.319Z,4.97
2023-05-15T03:19:24.322Z,8.73
2023-05-15T03:23:28.847Z,6.45
2023-05-15T03:27:34.056Z,5.80
2023-05-15T03:31:43.488Z,5.03
2023-05-15T03:35:46.548Z,5.05
2023-05-15T03:39:52.164Z,7.55
2023-05-15T03:43:55.306Z,6.55
2023-05-15T03:47:58.394Z,5.80
2023-05-15T03:52:13.347Z,5.93
2023-05-15T03:56:21.195Z,7.25
2023-05-15T04:00:30.247Z,7.68
2023-05-15T04:04:42.424Z,7.03
2023-05-15T04:08:45.432Z,9.90
2023-05-15T04:12:52.724Z,7.95
2023-05-15T04:16:56.859Z,11.00
2023-05-15T04:21:00.125Z,10.85
2023-05-15T04:25:03.524Z,9.25
2023-05-15T04:29:08.081Z,11.02
2023-05-15T04:33:12.433Z,9.05
2023-05-15T04:37:16.892Z,11.13
2023-05-15T04:41:20.993Z,10.77
2023-05-15T04:45:28.711Z,9.43
2023-05-15T04:49:31.781Z,8.63
2023-05-15T04:53:34.910Z,9.02
2023-05-15T04:57:39.818Z,10.32
2023-05-15T05:01:48.720Z,10.93
2023-05-15T05:05:51.763Z,10.38
2023-05-15T05:09:56.974Z,9.32
2023-05-15T05:14:01.868Z,11.10
2023-05-15T05:18:07.066Z,10.82
2023-05-15T05:22:12.327Z,8.60
2023-05-15T05:26:17.679Z,11.35
2023-05-15T05:30:24.947Z,12.52
2023-05-15T05:34:31.815Z,11.13
2023-05-15T05:38:37.831Z,10.52
2023-05-15T05:42:40.964Z,6.97
2023-05-15T05:46:45.507Z,7.30
2023-05-15T05:50:52.426Z,12.90
2023-05-15T05:54:57.853Z,10.90
2023-05-15T05:59:02.125Z,8.55
2023-05-15T06:03:05.492Z,10.30
2023-05-15T06:07:13.088Z,10.35
2023-05-15T06:11:19.334Z,11.45
2023-05-15T06:15:22.611Z,9.73
2023-05-15T06:19:27.718Z,8.70
2023-05-15T06:23:33.415Z,8.25
2023-05-15T06:27:36.440Z,7.13
2023-05-15T06:31:39.495Z,8.18
2023-05-15T06:35:42.631Z,7.43
2023-05-15T06:39:50.953Z,7.63
2023-05-15T06:43:57.880Z,9.52
2023-05-15T06:48:04.825Z,7.93
2023-05-15T06:52:08.489Z,7.90
2023-05-15T06:56:15.377Z,9.38
2023-05-15T07:00:19.281Z,10.00
2023-05-15T07:04:25.184Z,12.35
2023-05-15T07:08:29.880Z,8.63
2023-05-15T07:12:35.671Z,8.48
2023-05-15T07:16:48.087Z,7.32
2023-05-15T07:20:51.186Z,8.88
2023-05-15T07:24:54.364Z,6.88
2023-05-15T07:29:01.707Z,5.82
2023-05-15T07:33:04.948Z,7.88
2023-05-15T07:37:08.011Z,7.60
2023-05-15T07:41:11.041Z,7.30
2023-05-15T07:45:17.983Z,6.97
2023-05-15T07:49:25.292Z,6.20
2023-05-15T07:53:30.422Z,6.45
2023-05-15T07:57:33.432Z,5.80
2023-05-15T08:01:39.775Z,6.38
2023-05-15T08:05:43.944Z,5.93
2023-05-15T08:09:47.246Z,6.70
2023-05-15T08:13:51.445Z,8.25
2023-05-15T08:17:59.529Z,5.40
2023-05-15T08:22:06.147Z,5.10
2023-05-15T08:26:11.869Z,5.03
2023-05-15T08:30:18.872Z,7.28
2023-05-15T08:34:24.545Z,7.35
2023-05-15T08:38:27.568Z,5.25
2023-05-15T08:42:36.648Z,8.30
2023-05-15T08:46:40.177Z,8.35
2023-05-15T08:50:52.811Z,6.70
2023-05-15T08:54:57.915Z,5.35
2023-05-15T08:59:01.474Z,5.47
2023-05-15T09:03:04.678Z,5.07
2023-05-15T09:07:11.432Z,6.47
2023-05-15T09:11:16.893Z,5.72
2023-05-15T09:15:25.687Z,6.07
2023-05-15T09:19:30.288Z,5.43
2023-05-15T09:23:42.530Z,5.57
2023-05-15T09:27:46.247Z,5.60
2023-05-15T09:31:55.842Z,4.88
2023-05-15T09:36:01.547Z,5.18
2023-05-15T09:40:16.857Z,4.85
2023-05-15T09:44:21.943Z,4.88
2023-05-15T09:48:25.644Z,5.03
2023-05-15T09:52:32.491Z,5.15
2023-05-15T09:56:40.162Z,4.57
2023-05-15T10:00:48.271Z,5.40
2023-05-15T10:04:57.182Z,4.82
2023-05-15T10:09:01.076Z,4.38
2023-05-15T10:13:06.207Z,3.50
2023-05-15T10:17:10.923Z,3.47
2023-05-15T10:21:18.624Z,3.55
2023-05-15T10:25:28.437Z,4.43
2023-05-15T10:29:33.960Z,3.72
2023-05-15T10:33:37.948Z,3.47
2023-05-15T10:37:41.892Z,3.97
2023-05-15T10:41:47.183Z,3.72
2023-05-15T10:49:57.972Z,3.80
2023-05-15T10:54:04.661Z,6.97
2023-05-15T10:58:10.349Z,3.80
2023-05-15T11:02:23.595Z,5.10
2023-05-15T11:06:32.372Z,4.53
2023-05-15T11:10:40.537Z,3.92
2023-05-15T11:15:05.714Z,4.18
2023-05-15T11:19:26.127Z,3.40
2023-05-15T11:23:33.458Z,6.28
2023-05-15T11:27:43.239Z,5.15
2023-05-15T11:31:46.609Z,6.75
2023-05-15T11:36:01.242Z,4.05
2023-05-15T11:40:07.207Z,4.05
2023-05-15T11:44:10.841Z,6.53
2023-05-15T11:48:16.066Z,3.45
2023-05-15T11:52:20.686Z,5.28
2023-05-15T11:56:28.684Z,7.28
2023-05-15T12:00:32.515Z,3.80
2023-05-15T12:04:39.033Z,4.47
2023-05-15T12:08:43.961Z,4.15
2023-05-15T12:12:50.160Z,11.18
2023-05-15T12:16:53.442Z,4.85
2023-05-15T12:20:56.735Z,4.90
2023-05-15T12:25:03.020Z,3.95
2023-05-15T12:29:07.820Z,7.18
2023-05-15T12:33:12.911Z,4.03
2023-05-15T12:37:23.157Z,6.20
2023-05-15T12:41:32.301Z,4.40
2023-05-15T12:45:40.638Z,6.07
2023-05-15T12:49:43.939Z,7.00
2023-05-15T12:53:48.909Z,5.50
2023-05-15T12:57:53.482Z,5.38
2023-05-15T13:01:56.688Z,7.30
2023-05-15T13:06:00.290Z,3.95
2023-05-15T13:10:05.954Z,4.15
2023-05-15T13:14:17.805Z,4.93
2023-05-15T13:18:21.170Z,3.80
2023-05-15T13:22:28.005Z,7.05
2023-05-15T13:26:32.897Z,4.93
2023-05-15T13:30:41.405Z,3.63
2023-05-15T13:34:46.884Z,3.55
2023-05-15T13:38:51.351Z,3.92
2023-05-15T13:42:58.994Z,4.40
2023-05-15T13:47:04.498Z,3.22
2023-05-15T13:51:10.122Z,4.88
2023-05-15T13:55:19.711Z,3.05
2023-05-15T13:59:23.958Z,3.10
2023-05-15T14:03:31.020Z,2.75
2023-05-15T14:07:34.119Z,2.53
2023-05-15T14:11:37.115Z,2.30
2023-05-15T14:15:40.184Z,2.50
2023-05-15T14:19:44.722Z,2.67
2023-05-15T14:23:47.988Z,2.30
2023-05-15T14:27:51.287Z,2.17
2023-05-15T14:31:55.906Z,7.43
2023-05-15T14:36:01.129Z,3.72
2023-05-15T14:40:07.059Z,3.38
2023-05-15T14:44:10.167Z,3.95
2023-05-15T14:48:14.695Z,4.10
2023-05-15T14:52:19.303Z,4.80
2023-05-15T14:56:25.964Z,4.90
2023-05-15T15:00:32.068Z,5.18
2023-05-15T15:04:35.326Z,4.28
2023-05-15T15:08:39.777Z,4.95
2023-05-15T15:12:47.534Z,5.80
2023-05-15T15:16:50.650Z,6.28
2023-05-15T15:20:53.855Z,5.32
2023-05-15T15:25:00.952Z,4.63
2023-05-15T15:29:04.252Z,4.75
2023-05-15T15:33:11.523Z,4.30
2023-05-15T15:37:17.531Z,4.25
2023-05-15T15:41:23.677Z,4.28
2023-05-15T15:45:28.620Z,4.30
2023-05-15T15:49:38.024Z,3.90
2023-05-15T15:53:49.951Z,4.13
2023-05-15T15:58:00.008Z,4.45
2023-05-15T16:02:07.086Z,4.80
2023-05-15T16:06:12.986Z,4.22
2023-05-15T16:10:20.399Z,4.45
2023-05-15T16:14:31.590Z,5.63
2023-05-15T16:18:35.775Z,5.72
2023-05-15T16:22:41.789Z,4.60
2023-05-15T16:26:45.899Z,4.95
2023-05-15T16:30:53.477Z,4.25
2023-05-15T16:34:56.950Z,3.90
2023-05-15T16:39:01.748Z,3.80
2023-05-15T16:43:04.718Z,4.47
2023-05-15T16:47:16.776Z,5.15
2023-05-15T16:51:20.428Z,4.15
2023-05-15T16:55:23.745Z,4.97
2023-05-15T16:59:27.251Z,4.63
2023-05-15T17:03:34.925Z,4.00
2023-05-15T17:07:39.250Z,4.05
2023-05-15T17:11:45.091Z,4.40
2023-05-15T17:15:51.337Z,4.28
2023-05-15T17:19:56.388Z,3.90
2023-05-15T17:23:59.375Z,6.20
2023-05-15T17:28:02.382Z,12.98
2023-05-15T17:32:05.948Z,20.38
2023-05-15T17:36:10.740Z,31.75
2023-05-15T17:40:13.888Z,12.45
2023-05-15T17:44:18.633Z,29.92
2023-05-15T17:48:21.750Z,5.03
2023-05-15T17:52:28.158Z,6.43
2023-05-15T17:56:32.529Z,4.25
2023-05-15T18:00:38.251Z,4.38
2023-05-15T18:04:41.469Z,4.18
2023-05-15T18:08:47.497Z,4.13
2023-05-15T18:12:56.252Z,5.00
2023-05-15T18:17:03.051Z,5.22
2023-05-15T18:21:06.358Z,5.30
2023-05-15T18:25:13.509Z,4.30
2023-05-15T18:29:24.452Z,6.03
2023-05-15T18:33:30.262Z,4.63
2023-05-15T18:37:33.284Z,5.13
2023-05-15T18:41:43.914Z,6.47
2023-05-15T18:45:52.014Z,5.82
2023-05-15T18:49:55.294Z,5.00
2023-05-15T18:53:58.303Z,6.13
2023-05-15T18:58:02.970Z,6.00
2023-05-15T19:02:09.575Z,5.60
2023-05-15T19:06:13.552Z,6.97
2023-05-15T19:10:16.597Z,4.85
2023-05-15T19:14:22.825Z,5.15
2023-05-15T19:18:30.133Z,5.15
2023-05-15T19:22:37.597Z,8.98
2023-05-15T19:26:41.060Z,5.90
2023-05-15T19:30:48.293Z,7.50
2023-05-15T19:34:52.554Z,8.30
2023-05-15T19:38:55.660Z,6.70
2023-05-15T19:43:01.499Z,6.53
2023-05-15T19:47:12.523Z,6.22
2023-05-15T19:51:15.631Z,6.35
2023-05-15T19:55:20.467Z,7.50
2023-05-15T19:59:25.134Z,7.70
2023-05-15T20:03:33.677Z,8.25
2023-05-15T20:07:37.010Z,7.20
2023-05-15T20:11:45.738Z,10.05
2023-05-15T20:15:49.438Z,7.97
2023-05-15T20:19:57.016Z,7.40
2023-05-15T20:24:06.013Z,8.75
2023-05-15T20:28:11.015Z,10.18
2023-05-15T20:32:16.558Z,9.27
2023-05-15T20:36:22.784Z,12.70
2023-05-15T20:40:27.697Z,9.77
2023-05-15T20:44:31.048Z,9.13
2023-05-15T20:48:34.064Z,9.38
2023-05-15T20:52:38.631Z,13.57
2023-05-15T20:56:41.888Z,8.85
2023-05-15T21:00:46.798Z,10.43
2023-05-15T21:04:51.094Z,12.02
2023-05-15T21:08:56.224Z,11.55
2023-05-15T21:13:00.075Z,11.13
2023-05-15T21:17:03.227Z,10.57
2023-05-15T21:21:09.548Z,9.07
2023-05-15T21:25:15.877Z,11.40
2023-05-15T21:29:21.507Z,8.95
2023-05-15T21:33:35.705Z,9.88
2023-05-15T21:37:38.770Z,11.13
2023-05-15T21:41:43.431Z,9.85
2023-05-15T21:45:46.596Z,9.63
2023-05-15T21:49:49.675Z,15.38
2023-05-15T21:53:54.520Z,13.15
2023-05-15T21:58:00.692Z,9.40
2023-05-15T22:02:06.646Z,12.95
2023-05-15T22:06:11.092Z,8.85
2023-05-15T22:10:16.558Z,13.35
2023-05-15T22:14:23.374Z,11.82
2023-05-15T22:18:29.344Z,12.25
2023-05-15T22:22:36.150Z,13.55
2023-05-15T22:26:41.312Z,9.88
2023-05-15T22:30:45.807Z,10.60
2023-05-15T22:34:48.803Z,15.18
2023-05-15T22:38:56.209Z,11.38
2023-05-15T22:43:00.338Z,8.48
2023-05-15T22:47:10.502Z,12.38
2023-05-15T22:51:16.035Z,11.55
2023-05-15T22:55:19.193Z,11.20
2023-05-15T22:59:26.600Z,11.88
2023-05-15T23:03:32.108Z,12.82
2023-05-15T23:07:35.409Z,13.13
2023-05-15T23:11:40.864Z,14.52
2023-05-15T23:15:44.746Z,14.27
2023-05-15T23:19:49.323Z,10.52
2023-05-15T23:23:54.465Z,12.90
2023-05-15T23:27:57.680Z,16.10
2023-05-15T23:32:00.839Z,15.20
2023-05-15T23:36:06.123Z,12.98
2023-05-15T23:40:10.242Z,17.47
2023-05-15T23:44:13.258Z,19.53
2023-05-15T23:48:16.501Z,16.75
2023-05-15T23:52:22.958Z,15.80
2023-05-15T23:56:26.126Z,15.53
